Farndon, United Kingdom
Current Conditions -  °F | °C
As of 2:50 PM on Saturday 25 Oct 2014 (Local Time) from EGYD Reporting Station
Broken Clouds Broken Clouds  
Wind Chill: 57°   Ceiling: 4000
Heat Index: 57°   Visibility: 6mi
Dew Point: 48°   Wind: 17mph
Humidity: 72%   Direction: 230°SW
Pressure: 29.97"   Gusts: NA
Location:  53.05°N, 0.85°W
Report Text: EGYD 251350Z 23015KT 9999 FEW023 BKN040 14/09 Q1015 BLU NOSIG
Loading
Personal Weather Stations






























Interactive Weather Map New forecast layout! Learn more

10-Day Weather Forecast

Advertisements
Track Severe Weather on mobile